Time,TemperatureF,DewpointF,PressureIn,WindDirection,WindDirectionDegrees,WindSpeedMPH,WindSpeedGustMPH,Humidity,HourlyPrecipIn,Conditions,Clouds,dailyrainin,SolarRadiationWatts/m^2,SoftwareType,DateUTC
2013-12-25 00:05:00,7.6,2.2,30.72,SSW,207,0.0,0.0,78,0.00,,,0.00,0,Wunderground v.1.15,2013-12-25 08:05:00,
2013-12-25 00:15:00,7.2,1.5,30.72,SSW,207,0.0,0.0,77,0.00,,,0.00,0,Wunderground v.1.15,2013-12-25 08:15:00,
2013-12-25 00:20:00,7.0,1.3,30.72,SSW,207,0.0,0.0,77,0.00,,,0.00,0,Wunderground v.1.15,2013-12-25 08:20:00,
2013-12-25 00:30:00,7.0,1.3,30.72,SSW,207,0.0,0.0,77,0.00,,,0.00,0,Wunderground v.1.15,2013-12-25 08:30:00,
2013-12-25 00:40:00,6.9,1.2,30.72,SSW,207,0.0,0.0,77,0.00,,,0.00,0,Wunderground v.1.15,2013-12-25 08:40:00,
2013-12-25 00:50:00,6.9,1.2,30.72,SSW,207,0.0,0.0,77,0.00,,,0.00,0,Wunderground v.1.15,2013-12-25 08:50:00,
2013-12-25 01:00:00,6.7,1.0,30.72,SSW,207,0.0,0.0,77,0.00,,,0.00,0,Wunderground v.1.15,2013-12-25 09:00:00,
2013-12-25 01:10:00,6.3,0.3,30.73,SSW,207,0.0,0.0,76,0.00,,,0.00,0,Wunderground v.1.15,2013-12-25 09:10:00,
2013-12-25 01:20:00,6.0,0.1,30.74,SSW,207,0.0,0.0,76,0.00,,,0.00,0,Wunderground v.1.15,2013-12-25 09:20:00,
2013-12-25 01:25:00,6.0,0.3,30.74,SSW,207,0.0,0.0,77,0.00,,,0.00,0,Wunderground v.1.15,2013-12-25 09:25:00,
2013-12-25 01:35:00,6.1,0.4,30.74,SSW,207,0.0,0.0,77,0.00,,,0.00,0,Wunderground v.1.15,2013-12-25 09:35:00,
2013-12-25 01:45:00,6.0,0.3,30.74,SSW,207,0.0,0.0,77,0.00,,,0.00,0,Wunderground v.1.15,2013-12-25 09:45:00,
2013-12-25 01:55:00,5.6,-0.3,30.74,SSW,207,0.0,0.0,76,0.00,,,0.00,0,Wunderground v.1.15,2013-12-25 09:55:00,
2013-12-25 02:05:00,5.2,-0.7,30.75,SSW,207,0.0,0.0,76,0.00,,,0.00,0,Wunderground v.1.15,2013-12-25 10:05:00,
2013-12-25 02:15:00,5.0,-0.9,30.75,SSW,207,0.0,0.0,76,0.00,,,0.00,0,Wunderground v.1.15,2013-12-25 10:15:00,
2013-12-25 02:25:00,4.8,-1.1,30.75,SSW,207,0.0,0.0,76,0.00,,,0.00,0,Wunderground v.1.15,2013-12-25 10:25:00,
2013-12-25 02:35:00,5.0,-0.6,30.75,SSW,207,0.0,0.0,77,0.00,,,0.00,0,Wunderground v.1.15,2013-12-25 10:35:00,
2013-12-25 02:45:00,5.0,-0.9,30.74,SSW,207,0.0,0.0,76,0.00,,,0.00,0,Wunderground v.1.15,2013-12-25 10:45:00,
2013-12-25 02:55:00,4.7,-1.2,30.74,SSW,207,0.0,0.0,76,0.00,,,0.00,0,Wunderground v.1.15,2013-12-25 10:55:00,
2013-12-25 03:05:00,4.7,-1.2,30.75,SSW,207,0.0,0.0,76,0.00,,,0.00,0,Wunderground v.1.15,2013-12-25 11:05:00,
2013-12-25 03:15:00,4.3,-1.6,30.74,SSW,207,0.0,0.0,76,0.00,,,0.00,0,Wunderground v.1.15,2013-12-25 11:15:00,
2013-12-25 03:25:00,3.7,-2.7,30.74,SSW,207,0.0,0.0,74,0.00,,,0.00,0,Wunderground v.1.15,2013-12-25 11:25:00,
2013-12-25 03:35:00,3.4,-2.7,30.74,SSW,207,0.0,0.0,75,0.00,,,0.00,0,Wunderground v.1.15,2013-12-25 11:35:00,
2013-12-25 03:45:00,3.4,-2.5,30.74,SSW,207,0.0,0.0,76,0.00,,,0.00,0,Wunderground v.1.15,2013-12-25 11:45:00,
2013-12-25 03:50:00,3.5,-2.4,30.73,SSW,207,0.0,0.0,76,0.00,,,0.00,0,Wunderground v.1.15,2013-12-25 11:50:00,
2013-12-25 03:55:00,3.5,-2.4,30.73,SSW,207,0.0,0.0,76,0.00,,,0.00,0,Wunderground v.1.15,2013-12-25 11:55:00,
2013-12-25 04:05:00,3.5,-2.4,30.74,SSW,207,0.0,0.0,76,0.00,,,0.00,0,Wunderground v.1.15,2013-12-25 12:05:00,
2013-12-25 04:15:00,3.5,-2.7,30.74,SSW,207,0.0,0.0,75,0.00,,,0.00,0,Wunderground v.1.15,2013-12-25 12:15:00,
2013-12-25 04:25:00,3.4,-2.7,30.74,SSW,207,0.0,0.0,75,0.00,,,0.00,0,Wunderground v.1.15,2013-12-25 12:25:00,
2013-12-25 04:30:00,3.4,-2.7,30.74,SSW,207,0.0,0.0,75,0.00,,,0.00,0,Wunderground v.1.15,2013-12-25 12:30:00,
2013-12-25 04:40:00,3.2,-2.9,30.74,SSW,207,0.0,0.0,75,0.00,,,0.00,0,Wunderground v.1.15,2013-12-25 12:40:00,
2013-12-25 04:50:00,3.0,-3.4,30.74,SSW,207,0.0,0.0,74,0.00,,,0.00,0,Wunderground v.1.15,2013-12-25 12:50:00,
2013-12-25 05:00:00,2.8,-3.6,30.73,SSW,207,0.0,0.0,74,0.00,,,0.00,0,Wunderground v.1.15,2013-12-25 13:00:00,
2013-12-25 05:10:00,2.8,-3.3,30.74,SSW,207,0.0,0.0,75,0.00,,,0.00,0,Wunderground v.1.15,2013-12-25 13:10:00,
2013-12-25 05:15:00,2.8,-3.3,30.74,SSW,207,0.0,0.0,75,0.00,,,0.00,0,Wunderground v.1.15,2013-12-25 13:15:00,
2013-12-25 05:25:00,3.0,-3.1,30.75,SSW,207,0.0,0.0,75,0.00,,,0.00,0,Wunderground v.1.15,2013-12-25 13:25:00,
2013-12-25 05:30:00,3.0,-3.1,30.75,SSW,207,0.0,0.0,75,0.00,,,0.00,0,Wunderground v.1.15,2013-12-25 13:30:00,
2013-12-25 05:40:00,3.0,-3.1,30.75,SSW,207,0.0,0.0,75,0.00,,,0.00,0,Wunderground v.1.15,2013-12-25 13:40:00,
2013-12-25 05:45:00,2.6,-3.8,30.75,SSW,207,0.0,0.0,74,0.00,,,0.00,0,Wunderground v.1.15,2013-12-25 13:45:00,
2013-12-25 05:55:00,2.4,-3.7,30.75,SSW,207,0.0,0.0,75,0.00,,,0.00,0,Wunderground v.1.15,2013-12-25 13:55:00,
2013-12-25 06:00:00,2.4,-3.7,30.75,SSW,207,0.0,0.0,75,0.00,,,0.00,0,Wunderground v.1.15,2013-12-25 14:00:00,
2013-12-25 06:10:00,2.4,-4.0,30.76,SSW,207,0.0,0.0,74,0.00,,,0.00,0,Wunderground v.1.15,2013-12-25 14:10:00,
2013-12-25 06:20:00,2.4,-4.0,30.76,SSW,207,0.0,0.0,74,0.00,,,0.00,0,Wunderground v.1.15,2013-12-25 14:20:00,
2013-12-25 06:30:00,2.0,-4.4,30.76,SSW,207,0.0,0.0,74,0.00,,,0.00,0,Wunderground v.1.15,2013-12-25 14:30:00,
2013-12-25 06:40:00,2.0,-4.4,30.76,SSW,207,0.0,0.0,74,0.00,,,0.00,0,Wunderground v.1.15,2013-12-25 14:40:00,
2013-12-25 06:50:00,2.2,-4.2,30.76,SSW,207,0.0,0.0,74,0.00,,,0.00,0,Wunderground v.1.15,2013-12-25 14:50:00,
2013-12-25 07:00:00,2.2,-4.2,30.76,SSW,207,0.0,0.0,74,0.00,,,0.00,0,Wunderground v.1.15,2013-12-25 15:00:00,
2013-12-25 07:10:00,2.4,-3.7,30.77,SSW,207,0.0,0.0,75,0.00,,,0.00,0,Wunderground v.1.15,2013-12-25 15:10:00,
2013-12-25 07:20:00,2.2,-4.2,30.76,SSW,207,0.0,0.0,74,0.00,,,0.00,0,Wunderground v.1.15,2013-12-25 15:20:00,
2013-12-25 07:30:00,2.2,-3.9,30.76,SSW,207,0.0,0.0,75,0.00,,,0.00,0,Wunderground v.1.15,2013-12-25 15:30:00,
2013-12-25 07:40:00,2.4,-3.7,30.76,SSW,207,0.0,0.0,75,0.00,,,0.00,0,Wunderground v.1.15,2013-12-25 15:40:00,
2013-12-25 07:50:00,2.4,-3.7,30.75,SSW,207,0.0,0.0,75,0.00,,,0.00,5,Wunderground v.1.15,2013-12-25 15:50:00,
2013-12-25 08:00:00,2.4,-3.7,30.75,SSW,207,0.0,0.0,75,0.00,,,0.00,9,Wunderground v.1.15,2013-12-25 16:00:00,
2013-12-25 08:10:00,2.2,-4.2,30.75,SSW,207,0.0,0.0,74,0.00,,,0.00,19,Wunderground v.1.15,2013-12-25 16:10:00,
2013-12-25 08:20:00,2.6,-3.5,30.75,SSW,207,0.0,0.0,75,0.00,,,0.00,32,Wunderground v.1.15,2013-12-25 16:20:00,
2013-12-25 08:30:00,3.5,-2.4,30.75,SSW,207,0.0,0.0,76,0.00,,,0.00,26,Wunderground v.1.15,2013-12-25 16:30:00,
2013-12-25 08:40:00,4.8,-0.8,30.75,SSW,207,0.0,0.0,77,0.00,,,0.00,33,Wunderground v.1.15,2013-12-25 16:40:00,
2013-12-25 08:50:00,6.0,0.3,30.74,SSW,207,0.0,0.0,77,0.00,,,0.00,39,Wunderground v.1.15,2013-12-25 16:50:00,
2013-12-25 09:00:00,7.2,1.5,30.72,SSW,207,0.0,0.0,77,0.00,,,0.00,51,Wunderground v.1.15,2013-12-25 17:00:00,
2013-12-25 09:10:00,7.6,1.9,30.73,SSW,207,0.0,0.0,77,0.00,,,0.00,107,Wunderground v.1.15,2013-12-25 17:10:00,
2013-12-25 09:15:00,8.4,2.9,30.73,SSW,207,0.0,0.0,78,0.00,,,0.00,130,Wunderground v.1.15,2013-12-25 17:15:00,
2013-12-25 09:25:00,10.9,5.7,30.71,SSW,207,0.0,0.0,79,0.00,,,0.00,155,Wunderground v.1.15,2013-12-25 17:25:00,
2013-12-25 09:35:00,13.1,7.8,30.71,SSW,207,0.0,0.0,79,0.00,,,0.00,139,Wunderground v.1.15,2013-12-25 17:35:00,
2013-12-25 09:40:00,13.5,7.9,30.71,SSW,207,0.0,0.0,78,0.00,,,0.00,114,Wunderground v.1.15,2013-12-25 17:40:00,
2013-12-25 09:45:00,13.8,7.9,30.71,SSW,207,0.0,0.0,77,0.00,,,0.00,93,Wunderground v.1.15,2013-12-25 17:45:00,
2013-12-25 09:55:00,14.1,8.5,30.71,SSW,207,0.0,0.0,78,0.00,,,0.00,84,Wunderground v.1.15,2013-12-25 17:55:00,
2013-12-25 10:05:00,14.6,9.0,30.69,SSW,207,0.0,0.0,78,0.00,,,0.00,54,Wunderground v.1.15,2013-12-25 18:05:00,
2013-12-25 10:10:00,14.8,9.2,30.69,SSW,207,0.0,0.0,78,0.00,,,0.00,60,Wunderground v.1.15,2013-12-25 18:10:00,
2013-12-25 10:20:00,15.4,10.1,30.70,SSW,207,0.0,0.0,79,0.00,,,0.00,56,Wunderground v.1.15,2013-12-25 18:20:00,
2013-12-25 10:30:00,16.1,10.2,30.69,SSW,207,0.0,0.0,77,0.00,,,0.00,76,Wunderground v.1.15,2013-12-25 18:30:00,
2013-12-25 10:35:00,16.2,10.3,30.69,SSW,207,0.0,0.0,77,0.00,,,0.00,93,Wunderground v.1.15,2013-12-25 18:35:00,
2013-12-25 10:45:00,16.7,11.3,30.68,SSW,207,0.0,0.0,79,0.00,,,0.00,102,Wunderground v.1.15,2013-12-25 18:45:00,
2013-12-25 10:50:00,17.0,11.6,30.68,SSW,207,0.0,0.0,79,0.00,,,0.00,141,Wunderground v.1.15,2013-12-25 18:50:00,
2013-12-25 11:00:00,19.1,14.2,30.67,SSW,207,0.0,0.0,81,0.00,,,0.00,272,Wunderground v.1.15,2013-12-25 19:00:00,
2013-12-25 11:10:00,20.5,15.3,30.67,SSW,207,1.0,1.0,80,0.00,,,0.00,202,Wunderground v.1.15,2013-12-25 19:10:00,
2013-12-25 11:20:00,21.9,17.0,30.66,SSW,207,0.0,0.0,81,0.00,,,0.00,237,Wunderground v.1.15,2013-12-25 19:20:00,
2013-12-25 11:30:00,23.9,18.6,30.66,SSW,207,0.0,0.0,80,0.00,,,0.00,269,Wunderground v.1.15,2013-12-25 19:30:00,
2013-12-25 11:40:00,25.4,19.5,30.65,SSW,207,0.0,0.0,78,0.00,,,0.00,309,Wunderground v.1.15,2013-12-25 19:40:00,
2013-12-25 11:50:00,24.2,17.4,30.64,SSW,207,1.0,1.0,75,0.00,,,0.00,255,Wunderground v.1.15,2013-12-25 19:50:00,
2013-12-25 11:55:00,23.8,17.0,30.63,SSW,207,1.0,1.0,75,0.00,,,0.00,265,Wunderground v.1.15,2013-12-25 19:55:00,
2013-12-25 12:00:00,23.9,17.4,30.63,SSW,207,0.0,0.0,76,0.00,,,0.00,185,Wunderground v.1.15,2013-12-25 20:00:00,
2013-12-25 12:05:00,24.2,17.4,30.63,SSW,207,0.0,0.0,75,0.00,,,0.00,276,Wunderground v.1.15,2013-12-25 20:05:00,
2013-12-25 12:15:00,25.3,17.9,30.62,SSW,207,0.0,0.0,73,0.00,,,0.00,255,Wunderground v.1.15,2013-12-25 20:15:00,
2013-12-25 12:25:00,25.4,16.6,30.63,SSW,207,0.0,0.0,69,0.00,,,0.00,255,Wunderground v.1.15,2013-12-25 20:25:00,
2013-12-25 12:30:00,25.7,17.3,30.63,SSW,207,0.0,0.0,70,0.00,,,0.00,262,Wunderground v.1.15,2013-12-25 20:30:00,
2013-12-25 12:40:00,25.8,17.7,30.63,SSW,207,0.0,1.0,71,0.00,,,0.00,262,Wunderground v.1.15,2013-12-25 20:40:00,
2013-12-25 12:50:00,26.4,18.9,30.63,SSW,207,0.0,0.0,73,0.00,,,0.00,294,Wunderground v.1.15,2013-12-25 20:50:00,
2013-12-25 13:00:00,27.3,19.1,30.62,SSW,207,0.0,1.0,71,0.00,,,0.00,135,Wunderground v.1.15,2013-12-25 21:00:00,
2013-12-25 13:10:00,25.0,18.5,30.62,SSW,207,0.0,0.0,76,0.00,,,0.00,65,Wunderground v.1.15,2013-12-25 21:10:00,
2013-12-25 13:20:00,23.9,18.6,30.62,SSW,207,0.0,0.0,80,0.00,,,0.00,72,Wunderground v.1.15,2013-12-25 21:20:00,
2013-12-25 13:30:00,23.3,18.0,30.61,SSW,207,0.0,0.0,80,0.00,,,0.00,58,Wunderground v.1.15,2013-12-25 21:30:00,
2013-12-25 13:40:00,23.3,18.3,30.61,SSW,207,0.0,0.0,81,0.00,,,0.00,54,Wunderground v.1.15,2013-12-25 21:40:00,
2013-12-25 13:45:00,23.3,18.3,30.61,SSW,207,0.0,0.0,81,0.00,,,0.00,63,Wunderground v.1.15,2013-12-25 21:45:00,
2013-12-25 13:55:00,23.5,18.5,30.60,SSW,207,0.0,0.0,81,0.00,,,0.00,65,Wunderground v.1.15,2013-12-25 21:55:00,
2013-12-25 14:05:00,23.8,18.8,30.60,SSW,207,0.0,0.0,81,0.00,,,0.00,72,Wunderground v.1.15,2013-12-25 22:05:00,
2013-12-25 14:10:00,23.9,18.9,30.60,SSW,207,0.0,0.0,81,0.00,,,0.00,83,Wunderground v.1.15,2013-12-25 22:10:00,
2013-12-25 14:15:00,24.1,19.1,30.60,SSW,207,0.0,0.0,81,0.00,,,0.00,81,Wunderground v.1.15,2013-12-25 22:15:00,
2013-12-25 14:25:00,24.4,19.4,30.59,SSW,207,0.0,0.0,81,0.00,,,0.00,88,Wunderground v.1.15,2013-12-25 22:25:00,
2013-12-25 14:35:00,24.8,19.8,30.59,SSW,207,0.0,0.0,81,0.00,,,0.00,93,Wunderground v.1.15,2013-12-25 22:35:00,
2013-12-25 14:40:00,25.1,19.8,30.59,SSW,207,0.0,0.0,80,0.00,,,0.00,81,Wunderground v.1.15,2013-12-25 22:40:00,
2013-12-25 14:50:00,25.4,20.1,30.58,SSW,207,0.0,0.0,80,0.00,,,0.00,74,Wunderground v.1.15,2013-12-25 22:50:00,
2013-12-25 15:00:00,25.8,20.5,30.58,SSW,207,0.0,0.0,80,0.00,,,0.00,70,Wunderground v.1.15,2013-12-25 23:00:00,
2013-12-25 15:05:00,26.0,21.0,30.58,SSW,207,0.0,0.0,81,0.00,,,0.00,62,Wunderground v.1.15,2013-12-25 23:05:00,
2013-12-25 15:15:00,26.1,21.1,30.58,SSW,207,0.0,0.0,81,0.00,,,0.00,49,Wunderground v.1.15,2013-12-25 23:15:00,
2013-12-25 15:20:00,26.0,20.7,30.58,SSW,207,0.0,0.0,80,0.00,,,0.00,47,Wunderground v.1.15,2013-12-25 23:20:00,
2013-12-25 15:30:00,25.8,19.6,30.59,SSW,207,0.0,0.0,77,0.00,,,0.00,35,Wunderground v.1.15,2013-12-25 23:30:00,
2013-12-25 15:40:00,25.6,20.0,30.58,SSW,207,0.0,0.0,79,0.00,,,0.00,23,Wunderground v.1.15,2013-12-25 23:40:00,
2013-12-25 15:50:00,25.6,19.4,30.59,SSW,207,0.0,0.0,77,0.00,,,0.00,18,Wunderground v.1.15,2013-12-25 23:50:00,
2013-12-25 16:00:00,25.1,19.8,30.59,SSW,207,0.0,0.0,80,0.00,,,0.00,9,Wunderground v.1.15,2013-12-26 00:00:00,
2013-12-25 16:10:00,24.8,19.2,30.59,SSW,207,0.0,0.0,79,0.00,,,0.00,0,Wunderground v.1.15,2013-12-26 00:10:00,
2013-12-25 16:20:00,24.5,19.5,30.59,SSW,207,0.0,0.0,81,0.00,,,0.00,0,Wunderground v.1.15,2013-12-26 00:20:00,
2013-12-25 16:30:00,24.5,19.2,30.60,SSW,207,0.0,0.0,80,0.00,,,0.00,0,Wunderground v.1.15,2013-12-26 00:30:00,
2013-12-25 16:40:00,24.1,18.8,30.61,SSW,207,0.0,0.0,80,0.00,,,0.00,0,Wunderground v.1.15,2013-12-26 00:40:00,
2013-12-25 16:50:00,23.5,18.5,30.60,SSW,207,0.0,0.0,81,0.00,,,0.00,0,Wunderground v.1.15,2013-12-26 00:50:00,
2013-12-25 17:00:00,23.2,18.2,30.61,SSW,207,0.0,0.0,81,0.00,,,0.00,0,Wunderground v.1.15,2013-12-26 01:00:00,
2013-12-25 17:10:00,22.9,18.2,30.62,SSW,207,0.0,0.0,82,0.00,,,0.00,0,Wunderground v.1.15,2013-12-26 01:10:00,
2013-12-25 17:20:00,22.9,18.2,30.62,SSW,207,0.0,0.0,82,0.00,,,0.00,0,Wunderground v.1.15,2013-12-26 01:20:00,
2013-12-25 17:30:00,22.9,18.2,30.62,SSW,207,0.0,0.0,82,0.00,,,0.00,0,Wunderground v.1.15,2013-12-26 01:30:00,
2013-12-25 17:40:00,22.9,18.2,30.62,SSW,207,0.0,0.0,82,0.00,,,0.00,0,Wunderground v.1.15,2013-12-26 01:40:00,
2013-12-25 17:50:00,22.9,18.2,30.62,SSW,207,0.0,0.0,82,0.00,,,0.00,0,Wunderground v.1.15,2013-12-26 01:50:00,
2013-12-25 18:00:00,23.0,18.6,30.61,SSW,207,0.0,0.0,83,0.00,,,0.00,0,Wunderground v.1.15,2013-12-26 02:00:00,
2013-12-25 18:05:00,23.0,18.3,30.61,SSW,207,0.0,0.0,82,0.00,,,0.00,0,Wunderground v.1.15,2013-12-26 02:05:00,
2013-12-25 18:15:00,22.7,17.7,30.61,SSW,207,0.0,0.0,81,0.00,,,0.00,0,Wunderground v.1.15,2013-12-26 02:15:00,
2013-12-25 18:25:00,22.4,17.7,30.61,SSW,207,0.0,0.0,82,0.00,,,0.00,0,Wunderground v.1.15,2013-12-26 02:25:00,
2013-12-25 18:35:00,22.4,17.7,30.61,SSW,207,0.0,0.0,82,0.00,,,0.00,0,Wunderground v.1.15,2013-12-26 02:35:00,
2013-12-25 18:45:00,22.5,17.8,30.61,SSW,207,0.0,0.0,82,0.00,,,0.00,0,Wunderground v.1.15,2013-12-26 02:45:00,
2013-12-25 18:55:00,22.5,17.5,30.61,SSW,207,0.0,0.0,81,0.00,,,0.00,0,Wunderground v.1.15,2013-12-26 02:55:00,
2013-12-25 19:05:00,22.2,17.8,30.62,SSW,207,0.0,0.0,83,0.00,,,0.00,0,Wunderground v.1.15,2013-12-26 03:05:00,
2013-12-25 19:10:00,22.2,17.8,30.61,SSW,207,0.0,0.0,83,0.00,,,0.00,0,Wunderground v.1.15,2013-12-26 03:10:00,
2013-12-25 19:15:00,22.1,17.4,30.61,SSW,207,0.0,0.0,82,0.00,,,0.00,0,Wunderground v.1.15,2013-12-26 03:15:00,
2013-12-25 19:25:00,22.1,17.4,30.62,SSW,207,0.0,0.0,82,0.00,,,0.00,0,Wunderground v.1.15,2013-12-26 03:25:00,
2013-12-25 19:30:00,21.6,16.7,30.62,SSW,207,0.0,0.0,81,0.00,,,0.00,0,Wunderground v.1.15,2013-12-26 03:30:00,
2013-12-25 19:35:00,21.1,16.5,30.63,SSW,207,0.0,0.0,82,0.00,,,0.00,0,Wunderground v.1.15,2013-12-26 03:35:00,
2013-12-25 19:45:00,21.1,16.7,30.63,SSW,207,0.0,0.0,83,0.00,,,0.00,0,Wunderground v.1.15,2013-12-26 03:45:00,
2013-12-25 19:55:00,21.1,16.7,30.63,SSW,207,0.0,0.0,83,0.00,,,0.00,0,Wunderground v.1.15,2013-12-26 03:55:00,
2013-12-25 20:05:00,21.1,16.7,30.61,SSW,207,0.0,0.0,83,0.00,,,0.00,0,Wunderground v.1.15,2013-12-26 04:05:00,
2013-12-25 20:15:00,21.1,16.7,30.61,SSW,207,0.0,0.0,83,0.00,,,0.00,0,Wunderground v.1.15,2013-12-26 04:15:00,
2013-12-25 20:25:00,21.0,16.6,30.61,SSW,207,0.0,0.0,83,0.00,,,0.00,0,Wunderground v.1.15,2013-12-26 04:25:00,
2013-12-25 20:35:00,21.1,16.5,30.61,SSW,207,0.0,0.0,82,0.00,,,0.00,0,Wunderground v.1.15,2013-12-26 04:35:00,
2013-12-25 20:45:00,21.1,16.5,30.62,SSW,207,0.0,0.0,82,0.00,,,0.00,0,Wunderground v.1.15,2013-12-26 04:45:00,
2013-12-25 20:55:00,21.3,16.7,30.61,SSW,207,0.0,0.0,82,0.00,,,0.00,0,Wunderground v.1.15,2013-12-26 04:55:00,
2013-12-25 21:05:00,21.4,16.8,30.59,SSW,207,0.0,0.0,82,0.00,,,0.00,0,Wunderground v.1.15,2013-12-26 05:05:00,
2013-12-25 21:10:00,21.4,16.8,30.59,SSW,207,0.0,0.0,82,0.00,,,0.00,0,Wunderground v.1.15,2013-12-26 05:10:00,
2013-12-25 21:15:00,21.3,16.7,30.59,SSW,207,0.0,0.0,82,0.00,,,0.00,0,Wunderground v.1.15,2013-12-26 05:15:00,
2013-12-25 21:20:00,21.1,16.5,30.59,SSW,207,0.0,0.0,82,0.00,,,0.00,0,Wunderground v.1.15,2013-12-26 05:20:00,
2013-12-25 21:30:00,20.8,16.2,30.59,SSW,207,0.0,0.0,82,0.00,,,0.00,0,Wunderground v.1.15,2013-12-26 05:30:00,
2013-12-25 21:40:00,20.8,16.5,30.58,SSW,207,0.0,0.0,83,0.00,,,0.00,0,Wunderground v.1.15,2013-12-26 05:40:00,
2013-12-25 21:50:00,21.0,16.4,30.58,SSW,207,0.0,0.0,82,0.00,,,0.00,0,Wunderground v.1.15,2013-12-26 05:50:00,
2013-12-25 22:00:00,20.8,16.2,30.58,SSW,207,0.0,0.0,82,0.00,,,0.00,0,Wunderground v.1.15,2013-12-26 06:00:00,
2013-12-25 22:05:00,20.8,16.2,30.57,SSW,207,0.0,0.0,82,0.00,,,0.00,0,Wunderground v.1.15,2013-12-26 06:05:00,
2013-12-25 22:15:00,20.8,16.2,30.57,SSW,207,0.0,0.0,82,0.00,,,0.00,0,Wunderground v.1.15,2013-12-26 06:15:00,
2013-12-25 22:25:00,20.8,15.9,30.57,SSW,207,0.0,0.0,81,0.00,,,0.00,0,Wunderground v.1.15,2013-12-26 06:25:00,
2013-12-25 22:35:00,20.8,16.2,30.57,SSW,207,0.0,0.0,82,0.00,,,0.00,0,Wunderground v.1.15,2013-12-26 06:35:00,
2013-12-25 22:40:00,20.8,16.2,30.57,SSW,207,0.0,0.0,82,0.00,,,0.00,0,Wunderground v.1.15,2013-12-26 06:40:00,
2013-12-25 22:50:00,20.8,15.9,30.57,SSW,207,0.0,0.0,81,0.00,,,0.00,0,Wunderground v.1.15,2013-12-26 06:50:00,
2013-12-25 23:00:00,20.6,15.7,30.57,SSW,207,0.0,0.0,81,0.00,,,0.00,0,Wunderground v.1.15,2013-12-26 07:00:00,
2013-12-25 23:10:00,20.6,15.7,30.56,SSW,207,0.0,0.0,81,0.00,,,0.00,0,Wunderground v.1.15,2013-12-26 07:10:00,
2013-12-25 23:15:00,20.6,15.7,30.56,SSW,207,0.0,0.0,81,0.00,,,0.00,0,Wunderground v.1.15,2013-12-26 07:15:00,
2013-12-25 23:20:00,20.5,15.6,30.56,SSW,207,0.0,0.0,81,0.00,,,0.00,0,Wunderground v.1.15,2013-12-26 07:20:00,
2013-12-25 23:25:00,20.5,15.6,30.56,SSW,207,0.0,0.0,81,0.00,,,0.00,0,Wunderground v.1.15,2013-12-26 07:25:00,
2013-12-25 23:35:00,20.5,15.6,30.55,SSW,207,0.0,0.0,81,0.00,,,0.00,0,Wunderground v.1.15,2013-12-26 07:35:00,
2013-12-25 23:45:00,20.5,15.6,30.55,SSW,207,0.0,0.0,81,0.00,,,0.00,0,Wunderground v.1.15,2013-12-26 07:45:00,
2013-12-25 23:55:00,20.3,15.4,30.55,SSW,207,0.0,0.0,81,0.00,,,0.00,0,Wunderground v.1.15,2013-12-26 07:55:00,